Accueil
METAR-TAF:

METAR-TAF

Aéroports :

Aéroport de Seletar

Singapour, Singapour

latitude: 01-25-08N, longitude: 103-51-57E, altitude: 11 m

Observation

Le bulletin a été fait il y a 45 minutes, à 00:00 UTC
Vent 6 kt de nord/nord-est
Température 27°C
Humidité 84%
Pression 1012 hPa
Visibilité 10 km ou plus
Quelques nuages à une hauteur de 1800 ft
Nuages épars à une hauteur de 16000 ft
Nuages fragmentés à une hauteur de 30000 ft

METAR: WSSL 270000Z 02006KT 9999 FEW018 SCT160 BKN300 27/24 Q1012

Heure: 08:45 (00:45 UTC)

Prévision

Le bulletin a été fait il y a 1 heure et 45 minutes, à 23:00 UTC
Prévision valable du 27 à 00 UTC au 28 à 06 UTC
Vent 8 kt de nord-est
Visibilité 10 km ou plus
Quelques nuages à une hauteur de 1500 ft
Nuages épars à une hauteur de 2000 ft

TAF: WSSL 262300Z 2700/2806 04008KT 9999 FEW015 SCT020

Observations et prévisions météorologiques de plus de 4000 aéroports (messages METAR et TAF).

Les stations disponibles sont représentées par des disques jaunes et rouges sur la carte.

Passer la souris dessus pour voir le nom de la station.

Cliquer dessus pour voir les observations et prévisions météorologiques.

Pour changer de carte: cliquez sur les boutons verts avec une croix noire pour zoomer, sur le bouton vert avec un tiret pour effectuer un zoom arrière, ou sur les flèches vertes pour les cartes adjacentes.


METAR-TAF: